sim
Sign-in with your pilot id or email,
or register
Callsign
Passwort

Schedule Details

Flight Number: RYR8626
Departure: Weeze Airport (EDLV) at 05:30
Arrival: Fuerteventura Airport (GCFV) at 09:55
Route: Ryanair Passenger Schedule. Enter filed route here before submitting Pirep.

Weather Information
Getting current METAR information for EDLV 222150Z 00000KT CAVOK 20/16 Q1022
Getting current METAR information for GCFV 222200Z 35016KT CAVOK 22/17 Q1018

Schedule Frequency

Route Map